sensor_id;sensor_type;location;lat;lon;timestamp;P1;durP1;ratioP1;P2;durP2;ratioP2
43124;SDS011;49182;50.788;7.318;2022-12-16T00:01:11;35.38;;;14.23;;
43124;SDS011;49182;50.788;7.318;2022-12-16T00:03:40;34.08;;;13.32;;
43124;SDS011;49182;50.788;7.318;2022-12-16T00:06:09;33.28;;;12.45;;
43124;SDS011;49182;50.788;7.318;2022-12-16T00:08:36;29.55;;;10.13;;
43124;SDS011;49182;50.788;7.318;2022-12-16T00:11:04;26.48;;;9.60;;
43124;SDS011;49182;50.788;7.318;2022-12-16T00:13:31;32.03;;;11.02;;
43124;SDS011;49182;50.788;7.318;2022-12-16T00:16:02;27.40;;;10.05;;
43124;SDS011;49182;50.788;7.318;2022-12-16T00:18:30;31.95;;;12.55;;
43124;SDS011;49182;50.788;7.318;2022-12-16T00:20:57;33.40;;;11.35;;
43124;SDS011;49182;50.788;7.318;2022-12-16T00:23:25;28.55;;;11.40;;
43124;SDS011;49182;50.788;7.318;2022-12-16T00:25:52;31.52;;;13.02;;
43124;SDS011;49182;50.788;7.318;2022-12-16T00:28:21;28.73;;;11.57;;
43124;SDS011;49182;50.788;7.318;2022-12-16T00:30:48;30.95;;;12.68;;
43124;SDS011;49182;50.788;7.318;2022-12-16T00:33:17;26.02;;;11.73;;
43124;SDS011;49182;50.788;7.318;2022-12-16T00:35:45;31.73;;;12.30;;
43124;SDS011;49182;50.788;7.318;2022-12-16T00:38:12;31.50;;;13.27;;
43124;SDS011;49182;50.788;7.318;2022-12-16T00:40:40;29.92;;;11.85;;
43124;SDS011;49182;50.788;7.318;2022-12-16T00:43:07;39.95;;;14.32;;
43124;SDS011;49182;50.788;7.318;2022-12-16T00:45:33;35.28;;;13.35;;
43124;SDS011;49182;50.788;7.318;2022-12-16T00:48:00;35.47;;;14.05;;
43124;SDS011;49182;50.788;7.318;2022-12-16T00:50:27;33.42;;;12.07;;
43124;SDS011;49182;50.788;7.318;2022-12-16T00:52:54;30.98;;;12.38;;
43124;SDS011;49182;50.788;7.318;2022-12-16T00:55:20;32.67;;;12.23;;
43124;SDS011;49182;50.788;7.318;2022-12-16T00:57:48;38.22;;;14.82;;
43124;SDS011;49182;50.788;7.318;2022-12-16T01:00:17;34.47;;;12.75;;
43124;SDS011;49182;50.788;7.318;2022-12-16T01:02:45;31.17;;;12.10;;
43124;SDS011;49182;50.788;7.318;2022-12-16T01:05:14;34.85;;;12.45;;
43124;SDS011;49182;50.788;7.318;2022-12-16T01:07:42;34.80;;;13.32;;
43124;SDS011;49182;50.788;7.318;2022-12-16T01:10:09;35.40;;;13.32;;
43124;SDS011;49182;50.788;7.318;2022-12-16T01:12:36;31.17;;;11.25;;
43124;SDS011;49182;50.788;7.318;2022-12-16T01:15:06;32.25;;;12.52;;
43124;SDS011;49182;50.788;7.318;2022-12-16T01:17:33;37.90;;;11.70;;
43124;SDS011;49182;50.788;7.318;2022-12-16T01:20:00;29.00;;;10.80;;
43124;SDS011;49182;50.788;7.318;2022-12-16T01:22:28;34.67;;;12.30;;
43124;SDS011;49182;50.788;7.318;2022-12-16T01:24:55;22.50;;;10.45;;
43124;SDS011;49182;50.788;7.318;2022-12-16T01:27:22;30.90;;;11.93;;
43124;SDS011;49182;50.788;7.318;2022-12-16T01:29:48;29.92;;;12.40;;
43124;SDS011;49182;50.788;7.318;2022-12-16T01:32:18;33.30;;;12.88;;
43124;SDS011;49182;50.788;7.318;2022-12-16T01:34:48;30.70;;;12.82;;
43124;SDS011;49182;50.788;7.318;2022-12-16T01:37:20;31.95;;;11.07;;
43124;SDS011;49182;50.788;7.318;2022-12-16T01:39:48;39.53;;;12.52;;
43124;SDS011;49182;50.788;7.318;2022-12-16T01:42:15;31.35;;;12.43;;
43124;SDS011;49182;50.788;7.318;2022-12-16T01:44:44;29.80;;;11.18;;
43124;SDS011;49182;50.788;7.318;2022-12-16T01:47:13;33.72;;;12.13;;
43124;SDS011;49182;50.788;7.318;2022-12-16T01:49:46;33.58;;;12.55;;
43124;SDS011;49182;50.788;7.318;2022-12-16T01:52:19;30.17;;;12.57;;
43124;SDS011;49182;50.788;7.318;2022-12-16T01:54:50;30.60;;;11.57;;
43124;SDS011;49182;50.788;7.318;2022-12-16T01:57:23;30.90;;;11.68;;
43124;SDS011;49182;50.788;7.318;2022-12-16T01:59:53;36.13;;;12.10;;
43124;SDS011;49182;50.788;7.318;2022-12-16T02:02:20;32.42;;;12.20;;
43124;SDS011;49182;50.788;7.318;2022-12-16T02:04:49;33.22;;;10.60;;
43124;SDS011;49182;50.788;7.318;2022-12-16T02:07:16;31.20;;;12.23;;
43124;SDS011;49182;50.788;7.318;2022-12-16T02:09:43;35.70;;;13.27;;
43124;SDS011;49182;50.788;7.318;2022-12-16T02:12:12;26.95;;;12.00;;
43124;SDS011;49182;50.788;7.318;2022-12-16T02:14:56;32.83;;;11.77;;
43124;SDS011;49182;50.788;7.318;2022-12-16T02:17:37;34.95;;;14.07;;
43124;SDS011;49182;50.788;7.318;2022-12-16T02:26:39;30.23;;;11.80;;
43124;SDS011;49182;50.788;7.318;2022-12-16T02:29:34;29.88;;;11.80;;
43124;SDS011;49182;50.788;7.318;2022-12-16T02:32:13;30.08;;;11.93;;
43124;SDS011;49182;50.788;7.318;2022-12-16T02:34:47;34.55;;;12.13;;
43124;SDS011;49182;50.788;7.318;2022-12-16T02:37:23;34.67;;;10.82;;
43124;SDS011;49182;50.788;7.318;2022-12-16T02:40:05;39.55;;;13.77;;
43124;SDS011;49182;50.788;7.318;2022-12-16T02:42:39;33.97;;;10.68;;
43124;SDS011;49182;50.788;7.318;2022-12-16T02:45:13;31.92;;;11.77;;
43124;SDS011;49182;50.788;7.318;2022-12-16T02:47:44;27.85;;;9.98;;
43124;SDS011;49182;50.788;7.318;2022-12-16T02:50:14;30.38;;;12.65;;
43124;SDS011;49182;50.788;7.318;2022-12-16T02:52:44;30.63;;;11.68;;
43124;SDS011;49182;50.788;7.318;2022-12-16T02:55:11;30.42;;;12.02;;
43124;SDS011;49182;50.788;7.318;2022-12-16T02:57:41;31.88;;;13.00;;
43124;SDS011;49182;50.788;7.318;2022-12-16T03:00:21;35.40;;;11.90;;
43124;SDS011;49182;50.788;7.318;2022-12-16T03:02:54;30.38;;;12.52;;
43124;SDS011;49182;50.788;7.318;2022-12-16T03:05:24;33.40;;;13.02;;
43124;SDS011;49182;50.788;7.318;2022-12-16T03:07:55;33.25;;;12.60;;
43124;SDS011;49182;50.788;7.318;2022-12-16T03:10:24;27.77;;;11.48;;
43124;SDS011;49182;50.788;7.318;2022-12-16T03:12:54;30.98;;;13.15;;
43124;SDS011;49182;50.788;7.318;2022-12-16T03:15:24;34.05;;;12.40;;
43124;SDS011;49182;50.788;7.318;2022-12-16T03:17:56;31.02;;;12.48;;
43124;SDS011;49182;50.788;7.318;2022-12-16T03:20:25;35.60;;;12.85;;
43124;SDS011;49182;50.788;7.318;2022-12-16T03:22:56;35.28;;;12.57;;
43124;SDS011;49182;50.788;7.318;2022-12-16T03:25:27;35.25;;;14.05;;
43124;SDS011;49182;50.788;7.318;2022-12-16T03:27:58;30.70;;;11.90;;
43124;SDS011;49182;50.788;7.318;2022-12-16T03:30:35;34.50;;;13.18;;
43124;SDS011;49182;50.788;7.318;2022-12-16T03:33:08;31.75;;;13.25;;
43124;SDS011;49182;50.788;7.318;2022-12-16T03:35:42;36.20;;;12.48;;
43124;SDS011;49182;50.788;7.318;2022-12-16T03:38:13;34.92;;;12.15;;
43124;SDS011;49182;50.788;7.318;2022-12-16T03:40:41;34.55;;;12.13;;
43124;SDS011;49182;50.788;7.318;2022-12-16T03:43:09;33.40;;;13.95;;
43124;SDS011;49182;50.788;7.318;2022-12-16T03:45:38;32.38;;;13.38;;
43124;SDS011;49182;50.788;7.318;2022-12-16T03:48:09;29.17;;;11.95;;
43124;SDS011;49182;50.788;7.318;2022-12-16T03:50:40;34.90;;;12.32;;
43124;SDS011;49182;50.788;7.318;2022-12-16T03:53:06;30.48;;;12.02;;
43124;SDS011;49182;50.788;7.318;2022-12-16T03:55:33;33.92;;;12.30;;
43124;SDS011;49182;50.788;7.318;2022-12-16T03:58:00;29.77;;;12.70;;
43124;SDS011;49182;50.788;7.318;2022-12-16T04:00:27;44.47;;;14.35;;
43124;SDS011;49182;50.788;7.318;2022-12-16T04:02:53;31.40;;;11.65;;
43124;SDS011;49182;50.788;7.318;2022-12-16T04:05:21;31.60;;;11.70;;
43124;SDS011;49182;50.788;7.318;2022-12-16T04:07:48;32.63;;;11.77;;
43124;SDS011;49182;50.788;7.318;2022-12-16T04:10:15;35.75;;;12.55;;
43124;SDS011;49182;50.788;7.318;2022-12-16T04:12:42;32.63;;;12.70;;
43124;SDS011;49182;50.788;7.318;2022-12-16T04:15:09;36.60;;;13.35;;
43124;SDS011;49182;50.788;7.318;2022-12-16T04:17:36;34.95;;;13.57;;
43124;SDS011;49182;50.788;7.318;2022-12-16T04:20:03;28.45;;;11.27;;
43124;SDS011;49182;50.788;7.318;2022-12-16T04:22:32;31.67;;;11.73;;
43124;SDS011;49182;50.788;7.318;2022-12-16T04:25:04;36.40;;;11.93;;
43124;SDS011;49182;50.788;7.318;2022-12-16T04:30:00;25.30;;;9.88;;
43124;SDS011;49182;50.788;7.318;2022-12-16T04:32:26;39.20;;;12.90;;
43124;SDS011;49182;50.788;7.318;2022-12-16T04:34:53;34.88;;;11.52;;
43124;SDS011;49182;50.788;7.318;2022-12-16T04:37:20;30.98;;;11.23;;
43124;SDS011;49182;50.788;7.318;2022-12-16T04:39:48;35.10;;;11.98;;
43124;SDS011;49182;50.788;7.318;2022-12-16T04:42:15;30.35;;;10.88;;
43124;SDS011;49182;50.788;7.318;2022-12-16T04:44:41;37.50;;;12.77;;
43124;SDS011;49182;50.788;7.318;2022-12-16T04:47:08;34.63;;;13.38;;
43124;SDS011;49182;50.788;7.318;2022-12-16T04:49:34;32.95;;;12.32;;
43124;SDS011;49182;50.788;7.318;2022-12-16T04:52:01;29.40;;;12.45;;
43124;SDS011;49182;50.788;7.318;2022-12-16T04:54:28;39.65;;;13.38;;
43124;SDS011;49182;50.788;7.318;2022-12-16T04:56:56;36.13;;;13.52;;
43124;SDS011;49182;50.788;7.318;2022-12-16T04:59:22;33.72;;;12.00;;
43124;SDS011;49182;50.788;7.318;2022-12-16T05:01:49;35.53;;;11.75;;
43124;SDS011;49182;50.788;7.318;2022-12-16T05:04:15;27.92;;;10.95;;
43124;SDS011;49182;50.788;7.318;2022-12-16T05:06:42;33.47;;;11.68;;
43124;SDS011;49182;50.788;7.318;2022-12-16T05:09:09;34.70;;;11.18;;
43124;SDS011;49182;50.788;7.318;2022-12-16T05:11:35;28.05;;;10.63;;
43124;SDS011;49182;50.788;7.318;2022-12-16T05:14:03;24.98;;;9.88;;
43124;SDS011;49182;50.788;7.318;2022-12-16T05:16:30;23.70;;;9.55;;
43124;SDS011;49182;50.788;7.318;2022-12-16T05:18:57;27.20;;;10.57;;
43124;SDS011;49182;50.788;7.318;2022-12-16T05:21:23;28.83;;;9.73;;
43124;SDS011;49182;50.788;7.318;2022-12-16T05:23:50;29.90;;;10.38;;
43124;SDS011;49182;50.788;7.318;2022-12-16T05:26:16;32.20;;;10.63;;
43124;SDS011;49182;50.788;7.318;2022-12-16T05:28:43;33.10;;;11.75;;
43124;SDS011;49182;50.788;7.318;2022-12-16T05:31:11;34.00;;;12.07;;
43124;SDS011;49182;50.788;7.318;2022-12-16T05:33:37;34.55;;;12.50;;
43124;SDS011;49182;50.788;7.318;2022-12-16T05:36:04;30.60;;;11.70;;
43124;SDS011;49182;50.788;7.318;2022-12-16T05:38:31;33.42;;;11.73;;
43124;SDS011;49182;50.788;7.318;2022-12-16T05:40:57;35.20;;;14.00;;
43124;SDS011;49182;50.788;7.318;2022-12-16T05:43:24;37.72;;;12.38;;
43124;SDS011;49182;50.788;7.318;2022-12-16T05:45:50;38.78;;;12.68;;
43124;SDS011;49182;50.788;7.318;2022-12-16T05:48:18;36.03;;;13.10;;
43124;SDS011;49182;50.788;7.318;2022-12-16T05:50:45;35.22;;;12.27;;
43124;SDS011;49182;50.788;7.318;2022-12-16T05:53:11;34.47;;;13.45;;
43124;SDS011;49182;50.788;7.318;2022-12-16T05:55:38;39.67;;;12.45;;
43124;SDS011;49182;50.788;7.318;2022-12-16T05:58:05;33.25;;;11.10;;
43124;SDS011;49182;50.788;7.318;2022-12-16T06:00:31;29.65;;;11.45;;
43124;SDS011;49182;50.788;7.318;2022-12-16T06:02:58;31.08;;;10.38;;
43124;SDS011;49182;50.788;7.318;2022-12-16T06:05:26;28.73;;;10.68;;
43124;SDS011;49182;50.788;7.318;2022-12-16T06:07:52;29.98;;;10.32;;
43124;SDS011;49182;50.788;7.318;2022-12-16T06:10:19;31.65;;;11.93;;
43124;SDS011;49182;50.788;7.318;2022-12-16T06:12:46;36.28;;;12.05;;
43124;SDS011;49182;50.788;7.318;2022-12-16T06:15:12;32.00;;;12.27;;
43124;SDS011;49182;50.788;7.318;2022-12-16T06:17:40;31.73;;;11.60;;
43124;SDS011;49182;50.788;7.318;2022-12-16T06:20:07;40.58;;;11.70;;
43124;SDS011;49182;50.788;7.318;2022-12-16T06:22:35;30.70;;;12.07;;
43124;SDS011;49182;50.788;7.318;2022-12-16T06:25:02;26.95;;;10.93;;
43124;SDS011;49182;50.788;7.318;2022-12-16T06:27:29;31.83;;;10.55;;
43124;SDS011;49182;50.788;7.318;2022-12-16T06:29:55;36.20;;;12.00;;
43124;SDS011;49182;50.788;7.318;2022-12-16T06:32:22;31.48;;;12.40;;
43124;SDS011;49182;50.788;7.318;2022-12-16T06:34:48;27.50;;;9.98;;
43124;SDS011;49182;50.788;7.318;2022-12-16T06:37:15;32.15;;;11.60;;
43124;SDS011;49182;50.788;7.318;2022-12-16T06:39:43;30.60;;;10.00;;
43124;SDS011;49182;50.788;7.318;2022-12-16T06:42:16;27.45;;;10.13;;
43124;SDS011;49182;50.788;7.318;2022-12-16T06:44:43;21.25;;;9.40;;
43124;SDS011;49182;50.788;7.318;2022-12-16T06:47:10;29.60;;;10.60;;
43124;SDS011;49182;50.788;7.318;2022-12-16T06:49:40;24.17;;;10.25;;
43124;SDS011;49182;50.788;7.318;2022-12-16T06:52:06;34.58;;;10.90;;
43124;SDS011;49182;50.788;7.318;2022-12-16T06:54:35;26.65;;;11.23;;
43124;SDS011;49182;50.788;7.318;2022-12-16T06:57:03;23.05;;;9.60;;
43124;SDS011;49182;50.788;7.318;2022-12-16T06:59:29;26.90;;;10.70;;
43124;SDS011;49182;50.788;7.318;2022-12-16T07:01:56;26.80;;;10.10;;
43124;SDS011;49182;50.788;7.318;2022-12-16T07:04:23;31.98;;;10.07;;
43124;SDS011;49182;50.788;7.318;2022-12-16T07:06:49;28.50;;;9.07;;
43124;SDS011;49182;50.788;7.318;2022-12-16T07:09:16;20.70;;;9.60;;
43124;SDS011;49182;50.788;7.318;2022-12-16T07:11:42;31.20;;;12.18;;
43124;SDS011;49182;50.788;7.318;2022-12-16T07:14:10;31.58;;;11.60;;
43124;SDS011;49182;50.788;7.318;2022-12-16T07:16:37;30.05;;;9.95;;
43124;SDS011;49182;50.788;7.318;2022-12-16T07:19:03;32.15;;;10.80;;
43124;SDS011;49182;50.788;7.318;2022-12-16T07:21:30;30.23;;;11.07;;
43124;SDS011;49182;50.788;7.318;2022-12-16T07:23:56;25.38;;;10.07;;
43124;SDS011;49182;50.788;7.318;2022-12-16T07:26:23;25.13;;;11.50;;
43124;SDS011;49182;50.788;7.318;2022-12-16T07:28:50;28.10;;;11.02;;
43124;SDS011;49182;50.788;7.318;2022-12-16T07:31:17;27.55;;;11.32;;
43124;SDS011;49182;50.788;7.318;2022-12-16T07:33:44;28.63;;;9.90;;
43124;SDS011;49182;50.788;7.318;2022-12-16T07:36:11;24.50;;;10.35;;
43124;SDS011;49182;50.788;7.318;2022-12-16T07:38:37;26.60;;;10.02;;
43124;SDS011;49182;50.788;7.318;2022-12-16T07:41:04;29.85;;;11.48;;
43124;SDS011;49182;50.788;7.318;2022-12-16T07:43:30;29.58;;;10.25;;
43124;SDS011;49182;50.788;7.318;2022-12-16T07:45:57;28.45;;;11.20;;
43124;SDS011;49182;50.788;7.318;2022-12-16T07:48:25;27.95;;;10.93;;
43124;SDS011;49182;50.788;7.318;2022-12-16T07:50:52;23.08;;;9.45;;
43124;SDS011;49182;50.788;7.318;2022-12-16T07:53:18;24.95;;;10.15;;
43124;SDS011;49182;50.788;7.318;2022-12-16T07:55:45;32.13;;;9.88;;
43124;SDS011;49182;50.788;7.318;2022-12-16T07:58:11;23.70;;;9.45;;
43124;SDS011;49182;50.788;7.318;2022-12-16T08:00:38;27.67;;;11.35;;
43124;SDS011;49182;50.788;7.318;2022-12-16T08:03:04;32.05;;;10.82;;
43124;SDS011;49182;50.788;7.318;2022-12-16T08:05:33;27.58;;;10.48;;
43124;SDS011;49182;50.788;7.318;2022-12-16T08:07:59;27.10;;;10.60;;
43124;SDS011;49182;50.788;7.318;2022-12-16T08:10:26;25.15;;;10.00;;
43124;SDS011;49182;50.788;7.318;2022-12-16T08:12:57;24.45;;;10.40;;
43124;SDS011;49182;50.788;7.318;2022-12-16T08:17:51;25.92;;;9.90;;
43124;SDS011;49182;50.788;7.318;2022-12-16T08:20:18;25.05;;;10.07;;
43124;SDS011;49182;50.788;7.318;2022-12-16T08:22:46;25.42;;;9.75;;
43124;SDS011;49182;50.788;7.318;2022-12-16T08:25:12;33.72;;;10.82;;
43124;SDS011;49182;50.788;7.318;2022-12-16T08:27:39;30.00;;;10.75;;
43124;SDS011;49182;50.788;7.318;2022-12-16T08:30:06;26.65;;;10.43;;
43124;SDS011;49182;50.788;7.318;2022-12-16T08:32:33;27.73;;;10.95;;
43124;SDS011;49182;50.788;7.318;2022-12-16T08:35:01;29.75;;;11.07;;
43124;SDS011;49182;50.788;7.318;2022-12-16T08:37:28;20.88;;;9.25;;
43124;SDS011;49182;50.788;7.318;2022-12-16T08:39:56;31.08;;;11.52;;
43124;SDS011;49182;50.788;7.318;2022-12-16T08:42:42;29.95;;;10.88;;
43124;SDS011;49182;50.788;7.318;2022-12-16T08:45:09;29.63;;;10.23;;
43124;SDS011;49182;50.788;7.318;2022-12-16T08:47:35;32.15;;;10.35;;
43124;SDS011;49182;50.788;7.318;2022-12-16T08:50:02;27.40;;;8.93;;
43124;SDS011;49182;50.788;7.318;2022-12-16T08:52:29;39.30;;;11.60;;
43124;SDS011;49182;50.788;7.318;2022-12-16T08:54:57;25.80;;;10.07;;
43124;SDS011;49182;50.788;7.318;2022-12-16T08:57:24;29.25;;;10.70;;
43124;SDS011;49182;50.788;7.318;2022-12-16T08:59:50;28.67;;;10.63;;
43124;SDS011;49182;50.788;7.318;2022-12-16T09:02:17;25.13;;;10.18;;
43124;SDS011;49182;50.788;7.318;2022-12-16T09:04:44;29.85;;;10.77;;
43124;SDS011;49182;50.788;7.318;2022-12-16T09:07:11;30.90;;;10.25;;
43124;SDS011;49182;50.788;7.318;2022-12-16T09:09:38;29.40;;;11.13;;
43124;SDS011;49182;50.788;7.318;2022-12-16T09:12:06;31.42;;;12.18;;
43124;SDS011;49182;50.788;7.318;2022-12-16T09:14:32;27.23;;;10.10;;
43124;SDS011;49182;50.788;7.318;2022-12-16T09:16:59;27.05;;;10.85;;
43124;SDS011;49182;50.788;7.318;2022-12-16T09:19:26;29.45;;;12.20;;
43124;SDS011;49182;50.788;7.318;2022-12-16T09:21:52;22.35;;;9.43;;
43124;SDS011;49182;50.788;7.318;2022-12-16T09:24:20;24.55;;;10.02;;
43124;SDS011;49182;50.788;7.318;2022-12-16T09:26:46;36.60;;;11.15;;
43124;SDS011;49182;50.788;7.318;2022-12-16T09:29:14;26.90;;;9.85;;
43124;SDS011;49182;50.788;7.318;2022-12-16T09:31:41;28.85;;;11.25;;
43124;SDS011;49182;50.788;7.318;2022-12-16T09:34:07;25.73;;;10.48;;
43124;SDS011;49182;50.788;7.318;2022-12-16T09:36:34;36.10;;;10.02;;
43124;SDS011;49182;50.788;7.318;2022-12-16T09:39:01;30.90;;;10.70;;
43124;SDS011;49182;50.788;7.318;2022-12-16T09:41:32;26.55;;;10.80;;
43124;SDS011;49182;50.788;7.318;2022-12-16T09:44:12;22.40;;;9.88;;
43124;SDS011;49182;50.788;7.318;2022-12-16T09:46:47;28.77;;;11.18;;
43124;SDS011;49182;50.788;7.318;2022-12-16T09:49:20;23.88;;;11.30;;
43124;SDS011;49182;50.788;7.318;2022-12-16T09:51:56;26.65;;;10.25;;
43124;SDS011;49182;50.788;7.318;2022-12-16T09:54:26;30.30;;;11.40;;
43124;SDS011;49182;50.788;7.318;2022-12-16T09:56:57;20.90;;;8.13;;
43124;SDS011;49182;50.788;7.318;2022-12-16T09:59:31;29.67;;;11.70;;
43124;SDS011;49182;50.788;7.318;2022-12-16T10:02:02;31.83;;;12.10;;
43124;SDS011;49182;50.788;7.318;2022-12-16T10:04:36;27.52;;;11.90;;
43124;SDS011;49182;50.788;7.318;2022-12-16T10:07:02;28.58;;;11.75;;
43124;SDS011;49182;50.788;7.318;2022-12-16T10:09:36;26.45;;;11.98;;
43124;SDS011;49182;50.788;7.318;2022-12-16T10:12:12;28.38;;;11.30;;
43124;SDS011;49182;50.788;7.318;2022-12-16T10:14:57;27.65;;;12.23;;
43124;SDS011;49182;50.788;7.318;2022-12-16T10:17:28;32.17;;;12.70;;
43124;SDS011;49182;50.788;7.318;2022-12-16T10:19:55;31.35;;;13.90;;
43124;SDS011;49182;50.788;7.318;2022-12-16T10:22:36;30.25;;;12.45;;
43124;SDS011;49182;50.788;7.318;2022-12-16T10:25:07;29.13;;;11.43;;
43124;SDS011;49182;50.788;7.318;2022-12-16T10:27:48;30.92;;;12.65;;
43124;SDS011;49182;50.788;7.318;2022-12-16T10:30:16;32.05;;;13.48;;
43124;SDS011;49182;50.788;7.318;2022-12-16T10:32:44;42.05;;;15.15;;
43124;SDS011;49182;50.788;7.318;2022-12-16T10:35:16;34.53;;;13.77;;
43124;SDS011;49182;50.788;7.318;2022-12-16T10:37:45;39.40;;;14.80;;
43124;SDS011;49182;50.788;7.318;2022-12-16T10:40:14;41.47;;;15.35;;
43124;SDS011;49182;50.788;7.318;2022-12-16T10:42:46;32.67;;;12.55;;
43124;SDS011;49182;50.788;7.318;2022-12-16T10:45:17;40.05;;;16.58;;
43124;SDS011;49182;50.788;7.318;2022-12-16T10:47:48;36.05;;;14.30;;
43124;SDS011;49182;50.788;7.318;2022-12-16T10:50:15;32.88;;;13.88;;
43124;SDS011;49182;50.788;7.318;2022-12-16T10:52:43;44.45;;;14.43;;
43124;SDS011;49182;50.788;7.318;2022-12-16T10:55:18;35.85;;;14.38;;
43124;SDS011;49182;50.788;7.318;2022-12-16T10:57:54;34.63;;;13.68;;
43124;SDS011;49182;50.788;7.318;2022-12-16T11:00:39;34.53;;;13.40;;
43124;SDS011;49182;50.788;7.318;2022-12-16T11:03:18;33.67;;;13.98;;
43124;SDS011;49182;50.788;7.318;2022-12-16T11:05:47;37.47;;;14.93;;
43124;SDS011;49182;50.788;7.318;2022-12-16T11:08:21;36.10;;;14.27;;
43124;SDS011;49182;50.788;7.318;2022-12-16T11:10:50;35.28;;;15.05;;
43124;SDS011;49182;50.788;7.318;2022-12-16T11:13:19;39.05;;;15.35;;
43124;SDS011;49182;50.788;7.318;2022-12-16T11:15:50;40.03;;;16.02;;
43124;SDS011;49182;50.788;7.318;2022-12-16T11:18:32;32.25;;;15.02;;
43124;SDS011;49182;50.788;7.318;2022-12-16T11:21:10;38.28;;;14.93;;
43124;SDS011;49182;50.788;7.318;2022-12-16T11:23:42;37.95;;;15.13;;
43124;SDS011;49182;50.788;7.318;2022-12-16T11:26:11;46.15;;;16.30;;
43124;SDS011;49182;50.788;7.318;2022-12-16T11:28:38;44.90;;;16.33;;
43124;SDS011;49182;50.788;7.318;2022-12-16T11:31:08;41.15;;;16.08;;
43124;SDS011;49182;50.788;7.318;2022-12-16T11:33:38;41.05;;;16.70;;
43124;SDS011;49182;50.788;7.318;2022-12-16T11:36:08;46.40;;;17.38;;
43124;SDS011;49182;50.788;7.318;2022-12-16T11:38:40;35.83;;;15.57;;
43124;SDS011;49182;50.788;7.318;2022-12-16T11:41:15;40.13;;;16.80;;
43124;SDS011;49182;50.788;7.318;2022-12-16T11:43:49;43.55;;;16.88;;
43124;SDS011;49182;50.788;7.318;2022-12-16T11:46:23;41.75;;;16.63;;
43124;SDS011;49182;50.788;7.318;2022-12-16T11:48:53;50.22;;;17.60;;
43124;SDS011;49182;50.788;7.318;2022-12-16T11:51:24;44.03;;;16.45;;
43124;SDS011;49182;50.788;7.318;2022-12-16T11:53:55;39.95;;;17.38;;
43124;SDS011;49182;50.788;7.318;2022-12-16T11:56:29;42.90;;;15.85;;
43124;SDS011;49182;50.788;7.318;2022-12-16T11:59:02;44.00;;;16.60;;
43124;SDS011;49182;50.788;7.318;2022-12-16T12:01:36;42.13;;;17.63;;
43124;SDS011;49182;50.788;7.318;2022-12-16T12:04:11;48.72;;;17.08;;
43124;SDS011;49182;50.788;7.318;2022-12-16T12:06:43;49.67;;;20.58;;
43124;SDS011;49182;50.788;7.318;2022-12-16T12:09:23;49.63;;;21.52;;
43124;SDS011;49182;50.788;7.318;2022-12-16T12:11:53;87.50;;;27.40;;
43124;SDS011;49182;50.788;7.318;2022-12-16T12:14:28;56.13;;;21.50;;
43124;SDS011;49182;50.788;7.318;2022-12-16T12:17:05;41.00;;;17.48;;
43124;SDS011;49182;50.788;7.318;2022-12-16T12:19:45;39.40;;;17.88;;
43124;SDS011;49182;50.788;7.318;2022-12-16T12:22:24;38.08;;;16.88;;
43124;SDS011;49182;50.788;7.318;2022-12-16T12:25:00;40.97;;;17.35;;
43124;SDS011;49182;50.788;7.318;2022-12-16T12:27:34;35.92;;;16.50;;
43124;SDS011;49182;50.788;7.318;2022-12-16T12:30:13;44.10;;;18.42;;
43124;SDS011;49182;50.788;7.318;2022-12-16T12:32:47;71.75;;;24.77;;
43124;SDS011;49182;50.788;7.318;2022-12-16T12:35:28;70.18;;;24.33;;
43124;SDS011;49182;50.788;7.318;2022-12-16T12:38:11;47.97;;;19.48;;
43124;SDS011;49182;50.788;7.318;2022-12-16T12:40:46;38.75;;;16.25;;
43124;SDS011;49182;50.788;7.318;2022-12-16T12:43:20;34.55;;;15.93;;
43124;SDS011;49182;50.788;7.318;2022-12-16T12:45:59;34.60;;;14.90;;
43124;SDS011;49182;50.788;7.318;2022-12-16T12:48:34;35.97;;;16.08;;
43124;SDS011;49182;50.788;7.318;2022-12-16T12:51:08;32.58;;;14.05;;
43124;SDS011;49182;50.788;7.318;2022-12-16T12:53:44;32.55;;;15.27;;
43124;SDS011;49182;50.788;7.318;2022-12-16T12:56:20;35.95;;;15.10;;
43124;SDS011;49182;50.788;7.318;2022-12-16T12:58:57;32.42;;;14.70;;
43124;SDS011;49182;50.788;7.318;2022-12-16T13:03:59;34.28;;;14.02;;
43124;SDS011;49182;50.788;7.318;2022-12-16T13:06:32;39.05;;;14.30;;
43124;SDS011;49182;50.788;7.318;2022-12-16T13:09:00;31.77;;;14.45;;
43124;SDS011;49182;50.788;7.318;2022-12-16T13:11:27;36.22;;;15.48;;
43124;SDS011;49182;50.788;7.318;2022-12-16T13:14:00;33.58;;;15.27;;
43124;SDS011;49182;50.788;7.318;2022-12-16T13:19:40;34.97;;;15.15;;
43124;SDS011;49182;50.788;7.318;2022-12-16T13:22:23;35.38;;;14.98;;
43124;SDS011;49182;50.788;7.318;2022-12-16T13:24:54;34.22;;;16.25;;
43124;SDS011;49182;50.788;7.318;2022-12-16T13:27:22;33.05;;;14.57;;
43124;SDS011;49182;50.788;7.318;2022-12-16T13:29:59;35.30;;;16.35;;
43124;SDS011;49182;50.788;7.318;2022-12-16T13:32:27;37.50;;;15.45;;
43124;SDS011;49182;50.788;7.318;2022-12-16T13:34:59;35.83;;;15.57;;
43124;SDS011;49182;50.788;7.318;2022-12-16T13:37:26;32.30;;;14.68;;
43124;SDS011;49182;50.788;7.318;2022-12-16T13:40:01;33.33;;;15.13;;
43124;SDS011;49182;50.788;7.318;2022-12-16T13:42:50;33.95;;;15.73;;
43124;SDS011;49182;50.788;7.318;2022-12-16T13:45:28;33.15;;;14.65;;
43124;SDS011;49182;50.788;7.318;2022-12-16T13:47:59;34.70;;;15.75;;
43124;SDS011;49182;50.788;7.318;2022-12-16T13:50:35;35.80;;;15.95;;
43124;SDS011;49182;50.788;7.318;2022-12-16T13:53:04;37.95;;;15.55;;
43124;SDS011;49182;50.788;7.318;2022-12-16T13:55:36;35.75;;;15.52;;
43124;SDS011;49182;50.788;7.318;2022-12-16T13:58:08;38.45;;;14.75;;
43124;SDS011;49182;50.788;7.318;2022-12-16T14:00:42;35.97;;;17.30;;
43124;SDS011;49182;50.788;7.318;2022-12-16T14:03:09;34.10;;;15.05;;
43124;SDS011;49182;50.788;7.318;2022-12-16T14:05:42;35.17;;;16.07;;
43124;SDS011;49182;50.788;7.318;2022-12-16T14:08:10;37.08;;;16.38;;
43124;SDS011;49182;50.788;7.318;2022-12-16T14:10:41;41.40;;;16.70;;
43124;SDS011;49182;50.788;7.318;2022-12-16T14:13:08;40.72;;;16.00;;
43124;SDS011;49182;50.788;7.318;2022-12-16T14:15:49;43.92;;;17.13;;
43124;SDS011;49182;50.788;7.318;2022-12-16T14:18:24;39.72;;;17.73;;
43124;SDS011;49182;50.788;7.318;2022-12-16T14:20:59;41.35;;;17.73;;
43124;SDS011;49182;50.788;7.318;2022-12-16T14:23:29;41.80;;;17.42;;
43124;SDS011;49182;50.788;7.318;2022-12-16T14:26:22;35.90;;;16.45;;
43124;SDS011;49182;50.788;7.318;2022-12-16T14:28:49;41.88;;;18.13;;
43124;SDS011;49182;50.788;7.318;2022-12-16T14:31:19;40.03;;;17.00;;
43124;SDS011;49182;50.788;7.318;2022-12-16T14:33:50;38.70;;;16.90;;
43124;SDS011;49182;50.788;7.318;2022-12-16T14:36:20;38.97;;;18.08;;
43124;SDS011;49182;50.788;7.318;2022-12-16T14:38:48;42.72;;;18.30;;
43124;SDS011;49182;50.788;7.318;2022-12-16T14:41:17;43.70;;;18.55;;
43124;SDS011;49182;50.788;7.318;2022-12-16T14:43:45;47.30;;;20.23;;
43124;SDS011;49182;50.788;7.318;2022-12-16T14:46:19;42.33;;;18.35;;
43124;SDS011;49182;50.788;7.318;2022-12-16T14:48:52;42.45;;;19.48;;
43124;SDS011;49182;50.788;7.318;2022-12-16T14:51:23;43.25;;;18.83;;
43124;SDS011;49182;50.788;7.318;2022-12-16T14:53:50;40.40;;;18.73;;
43124;SDS011;49182;50.788;7.318;2022-12-16T14:56:18;44.45;;;18.35;;